Hovedside
METAR-TAF:

METAR-TAF

Lufthavner :

Pantelleria, Italia

breddegrad: 36-49N, lengdegrad: 011-58E, høyde over havet: 191 m

Gjeldene værobservasjon

Denne rapporten ble laget for 58 minutter siden, klokken 08:55 UTC
Vind 11 kt fra Sørvest
Temperatur 14°C
Luftfuktighet 88%
Trykk 1015 hPa
Sikt 10 km eller mer
Få skyer i en høyde av 1500 ft

METAR: LICG 130855Z 23011KT 9999 FEW015 14/12 Q1015 RMK BKN SCT070 BKN200 VIS MIN 9999 WIND THR08 22014KT WIND THR21 26011KT BLU

Tid: 10:53 (09:53 UTC)

Varsel

Denne rapporten ble laget for 1 time og 53 minutter siden, klokken 08:00 UTC
Varsel gyldig fra 13. klokken 09 UTC til 13. klokken 18 UTC
Vind 10 kt fra Vest-sørvest
Sikt 10 km eller mer
Spredte skyer i en høyde av 1500 ft
Blir
fra 13. klokken 16 UTC til 13. klokken 18 UTC
Vind 12 kt fra Sør

TAF: LICG 130800Z 1309/1318 24010KT 9999 SCT015 BECMG 1316/1318 18012KT

Værobservasjoner og værvarsel for over 4000 flyplasser (METAR- og TAF-rapporter).

Tilgjengelige stasjoner er representert av de røde og gule prikkene på kartet.

Hold musepekeren over prikken for å se navnet på stasjonen.

Klikk så for å se værobservasjoner og -varsler.

For å forandre kartet kan du klikke på den grønne knappen med svart kryss for å zoome inn, på den grønne knappen med strek for å zoome ut, eller på de grønne pilene for å se tilstøtende kart.


METAR-TAF: